Time;durP1;ratioP1;P1;durP2;ratioP2;P2;SDS_P1;SDS_P2;PMS_P1;PMS_P2;Temp;Humidity;BMP_temperature;BMP_pressure;BME280_temperature;BME280_humidity;BME280_pressure;Samples;Min_cycle;Max_cycle;Signal;HPM_P1;HPM_P2
2021/06/12 00:01:21;;;;;;;2.27;1.83;;;26.40;50.10;;;;;;4979160;28;20282;-76
2021/06/12 00:03:52;;;;;;;3.27;2.27;;;26.40;50.10;;;;;;4989681;28;20212;-75
2021/06/12 00:06:20;;;;;;;4.80;2.10;;;26.40;50.00;;;;;;4989376;28;20223;-75
2021/06/12 00:08:51;;;;;;;2.13;1.90;;;26.40;50.00;;;;;;4972809;28;20217;-75
2021/06/12 00:11:25;;;;;;;2.70;2.20;;;26.30;49.90;;;;;;4990102;28;20214;-75
2021/06/12 00:14:07;;;;;;;2.43;2.10;;;26.40;49.90;;;;;;4976798;28;20654;-75
2021/06/12 00:16:37;;;;;;;3.50;2.30;;;26.40;49.90;;;;;;4991711;28;20796;-76
2021/06/12 00:19:09;;;;;;;3.23;2.27;;;26.40;49.90;;;;;;4988622;28;20215;-76
2021/06/12 00:21:40;;;;;;;2.37;2.17;;;26.30;49.80;;;;;;4981429;28;20266;-75
2021/06/12 00:24:09;;;;;;;2.27;2.07;;;26.30;49.80;;;;;;4996823;28;20629;-75
2021/06/12 00:26:40;;;;;;;3.73;2.27;;;26.30;49.80;;;;;;4994185;28;20205;-75
2021/06/12 00:29:11;;;;;;;3.13;1.97;;;26.30;49.80;;;;;;4990981;28;20224;-75
2021/06/12 00:31:43;;;;;;;3.23;2.17;;;26.30;49.90;;;;;;4976628;28;20212;-76
2021/06/12 00:34:13;;;;;;;2.87;1.93;;;26.30;50.00;;;;;;4995783;28;20248;-75
2021/06/12 00:36:41;;;;;;;3.90;2.27;;;26.20;49.90;;;;;;4974365;28;20192;-75
2021/06/12 00:39:12;;;;;;;3.53;2.07;;;26.20;49.90;;;;;;4982078;28;20189;-76
2021/06/12 00:41:44;;;;;;;3.73;2.00;;;26.20;49.90;;;;;;4974779;28;20204;-75
2021/06/12 00:44:28;;;;;;;2.67;2.07;;;26.20;50.00;;;;;;4961441;28;20227;-75
2021/06/12 00:46:56;;;;;;;2.73;2.03;;;26.20;50.00;;;;;;4974847;28;20220;-75
2021/06/12 00:49:30;;;;;;;2.60;2.10;;;26.20;50.00;;;;;;4990180;28;20266;-75
2021/06/12 00:51:59;;;;;;;3.47;2.03;;;26.10;50.00;;;;;;4990049;28;20234;-75
2021/06/12 00:54:30;;;;;;;3.73;2.40;;;26.10;50.00;;;;;;4989266;28;20206;-76
2021/06/12 00:57:03;;;;;;;4.07;2.37;;;26.10;50.10;;;;;;4952156;28;20236;-75
2021/06/12 00:59:38;;;;;;;2.97;2.20;;;26.10;50.10;;;;;;4967803;28;20765;-75
2021/06/12 01:02:05;;;;;;;2.87;2.40;;;26.10;50.20;;;;;;4986922;28;20220;-75
2021/06/12 01:04:35;;;;;;;2.33;1.90;;;26.10;50.20;;;;;;4995800;28;20204;-75
2021/06/12 01:07:06;;;;;;;2.80;1.87;;;26.10;50.20;;;;;;4985303;28;20212;-75
2021/06/12 01:09:37;;;;;;;2.57;2.10;;;26.10;50.20;;;;;;4993518;28;20328;-75
2021/06/12 01:12:36;;;;;;;3.23;2.00;;;26.10;50.10;;;;;;4993626;28;20203;-75
2021/06/12 01:15:09;;;;;;;2.93;2.37;;;26.10;50.80;;;;;;4991667;28;20214;-75
2021/06/12 01:18:15;;;;;;;4.17;2.37;;;26.00;50.10;;;;;;4978126;28;20208;-75
2021/06/12 01:21:29;;;;;;;2.17;1.90;;;26.00;50.20;;;;;;4992118;28;20248;-76
2021/06/12 01:24:28;;;;;;;3.27;2.57;;;25.90;50.20;;;;;;4982905;28;20828;-75
2021/06/12 01:27:24;;;;;;;3.13;2.17;;;25.90;50.30;;;;;;4985118;28;20220;-75
2021/06/12 01:30:32;;;;;;;2.33;2.10;;;25.90;50.40;;;;;;4991786;28;20205;-75
2021/06/12 01:33:12;;;;;;;2.63;1.90;;;25.90;50.40;;;;;;4980055;28;20626;-75
2021/06/12 01:36:15;;;;;;;2.73;1.83;;;25.90;50.40;;;;;;4978281;28;20295;-75
2021/06/12 01:38:50;;;;;;;2.80;2.27;;;25.90;50.40;;;;;;4975528;28;20257;-75
2021/06/12 01:41:58;;;;;;;4.00;2.37;;;25.90;50.50;;;;;;4991318;28;20375;-75
2021/06/12 01:44:30;;;;;;;2.67;2.10;;;25.80;50.50;;;;;;4990051;28;20202;-75
2021/06/12 01:47:20;;;;;;;4.80;2.53;;;25.80;50.60;;;;;;4976855;28;20208;-75
2021/06/12 01:49:56;;;;;;;3.37;2.10;;;25.80;50.60;;;;;;4990813;28;20236;-75
2021/06/12 01:52:27;;;;;;;3.70;2.20;;;25.80;50.60;;;;;;4991439;28;20595;-75
2021/06/12 01:55:03;;;;;;;3.47;2.23;;;25.80;50.60;;;;;;4974753;28;20196;-74
2021/06/12 01:57:33;;;;;;;3.33;2.00;;;25.80;50.70;;;;;;4991715;28;20263;-74
2021/06/12 02:00:06;;;;;;;3.33;1.93;;;25.80;50.60;;;;;;4975307;28;20209;-75
2021/06/12 02:02:41;;;;;;;3.33;2.37;;;25.80;50.60;;;;;;4992025;28;20215;-75
2021/06/12 02:05:22;;;;;;;2.37;2.10;;;25.80;50.50;;;;;;4978248;28;20215;-75
2021/06/12 02:07:57;;;;;;;3.23;2.10;;;25.80;50.50;;;;;;4990887;28;20605;-75
2021/06/12 02:10:50;;;;;;;3.80;2.40;;;25.70;50.50;;;;;;4976001;28;20223;-75
2021/06/12 02:13:48;;;;;;;3.27;2.30;;;25.70;50.40;;;;;;4982061;28;20205;-75
2021/06/12 02:16:31;;;;;;;3.33;2.30;;;25.70;50.40;;;;;;4979938;28;20268;-75
2021/06/12 02:19:04;;;;;;;2.93;2.37;;;25.70;50.30;;;;;;4983183;28;20220;-75
2021/06/12 02:21:35;;;;;;;3.00;2.00;;;25.70;50.40;;;;;;4975084;28;20258;-75
2021/06/12 02:24:16;;;;;;;3.27;2.40;;;25.70;50.40;;;;;;4977858;28;20204;-75
2021/06/12 02:26:53;;;;;;;2.50;2.30;;;25.60;50.40;;;;;;4990889;28;20203;-74
2021/06/12 02:29:27;;;;;;;2.93;2.23;;;25.70;50.40;;;;;;4974589;28;20291;-74
2021/06/12 02:32:06;;;;;;;2.67;2.33;;;25.60;50.30;;;;;;4992447;28;20227;-74
2021/06/12 02:34:37;;;;;;;3.30;2.60;;;25.60;50.30;;;;;;4990761;28;20602;-75
2021/06/12 02:37:09;;;;;;;4.13;2.77;;;25.60;50.20;;;;;;4991966;28;20200;-75
2021/06/12 02:39:37;;;;;;;3.00;2.20;;;25.60;50.20;;;;;;4976606;28;20209;-75
2021/06/12 02:42:09;;;;;;;3.37;2.30;;;25.60;50.20;;;;;;4991269;28;20208;-75
2021/06/12 02:44:38;;;;;;;3.60;2.40;;;25.60;50.10;;;;;;4989942;28;20328;-75
2021/06/12 02:47:13;;;;;;;2.83;2.20;;;25.60;50.00;;;;;;4992365;28;20204;-75
2021/06/12 02:49:44;;;;;;;3.83;2.70;;;25.60;50.00;;;;;;4990412;28;20212;-75
2021/06/12 02:52:21;;;;;;;3.13;2.37;;;25.60;49.90;;;;;;4989980;28;20208;-74
2021/06/12 02:54:51;;;;;;;3.43;2.30;;;25.50;49.90;;;;;;4990129;28;20290;-75
2021/06/12 02:57:22;;;;;;;2.90;2.23;;;25.50;49.90;;;;;;4975717;28;20551;-75
2021/06/12 02:59:53;;;;;;;2.53;2.20;;;25.60;49.90;;;;;;4992005;28;20215;-75
2021/06/12 03:02:23;;;;;;;2.77;2.50;;;25.50;49.80;;;;;;4977117;28;20263;-75
2021/06/12 03:04:57;;;;;;;3.23;2.40;;;25.50;49.80;;;;;;4961367;28;20224;-75
2021/06/12 03:07:30;;;;;;;3.67;2.37;;;25.50;50.00;;;;;;4990964;28;20563;-75
2021/06/12 03:10:03;;;;;;;3.33;2.60;;;25.50;50.00;;;;;;4990783;28;20224;-75
2021/06/12 03:12:32;;;;;;;4.03;2.33;;;25.50;50.10;;;;;;4990590;28;20197;-75
2021/06/12 03:15:05;;;;;;;3.07;2.33;;;25.40;50.00;;;;;;4991864;28;20224;-75
2021/06/12 03:17:35;;;;;;;3.57;2.10;;;25.40;49.90;;;;;;4989145;28;20291;-75
2021/06/12 03:20:06;;;;;;;3.97;2.80;;;25.50;49.90;;;;;;4975160;28;20201;-75
2021/06/12 03:22:40;;;;;;;2.33;2.10;;;25.50;49.80;;;;;;4990091;28;20244;-75
2021/06/12 03:25:22;;;;;;;3.43;2.93;;;25.50;49.80;;;;;;4977075;28;20297;-75
2021/06/12 03:27:52;;;;;;;3.10;2.50;;;25.50;49.80;;;;;;4986533;28;20213;-75
2021/06/12 03:30:30;;;;;;;3.97;2.73;;;25.50;49.70;;;;;;4970860;28;20235;-75
2021/06/12 03:33:02;;;;;;;3.93;3.13;;;25.50;49.60;;;;;;4999522;28;20204;-75
2021/06/12 03:35:33;;;;;;;3.70;2.50;;;25.50;49.60;;;;;;4973564;28;20200;-75
2021/06/12 03:38:05;;;;;;;5.47;2.90;;;25.40;49.40;;;;;;4997214;28;20196;-75
2021/06/12 03:40:37;;;;;;;3.00;2.57;;;25.40;49.40;;;;;;4994991;28;20265;-75
2021/06/12 03:43:07;;;;;;;3.53;2.73;;;25.40;49.50;;;;;;4996264;28;20204;-75
2021/06/12 03:45:43;;;;;;;3.50;2.60;;;25.40;49.50;;;;;;4974832;28;20212;-75
2021/06/12 03:48:14;;;;;;;4.60;2.90;;;25.40;49.50;;;;;;4976724;28;20218;-74
2021/06/12 03:50:51;;;;;;;4.73;3.00;;;25.40;49.60;;;;;;4977944;28;20749;-74
2021/06/12 03:53:21;;;;;;;3.33;2.80;;;25.40;49.60;;;;;;4996868;28;20233;-73
2021/06/12 03:55:49;;;;;;;4.70;3.30;;;25.40;49.50;;;;;;4975065;28;20200;-72
2021/06/12 03:58:25;;;;;;;4.17;2.97;;;25.40;49.60;;;;;;4988666;28;20200;-72
2021/06/12 04:00:54;;;;;;;4.80;3.40;;;25.40;49.60;;;;;;4989812;28;20208;-73
2021/06/12 04:03:25;;;;;;;5.33;3.50;;;25.30;49.50;;;;;;4989830;28;20201;-73
2021/06/12 04:05:57;;;;;;;5.23;3.20;;;25.30;49.70;;;;;;4990486;28;20200;-73
2021/06/12 04:08:26;;;;;;;4.67;3.60;;;25.30;49.80;;;;;;4990738;28;20220;-73
2021/06/12 04:10:57;;;;;;;4.97;3.80;;;25.30;49.90;;;;;;4989530;28;20514;-75
2021/06/12 04:13:26;;;;;;;5.20;3.57;;;25.20;50.00;;;;;;4988744;28;20220;-74
2021/06/12 04:15:56;;;;;;;6.90;3.70;;;25.30;50.20;;;;;;4980541;28;20692;-75
2021/06/12 04:18:24;;;;;;;4.57;3.93;;;25.20;50.40;;;;;;4988347;28;20234;-75
2021/06/12 04:20:55;;;;;;;5.57;3.97;;;25.20;50.50;;;;;;4991339;28;20880;-74
2021/06/12 04:23:22;;;;;;;5.93;3.93;;;25.20;50.60;;;;;;4988468;28;20814;-74
2021/06/12 04:25:50;;;;;;;5.93;4.00;;;25.20;50.80;;;;;;4989666;28;20192;-74
2021/06/12 04:28:19;;;;;;;7.33;3.63;;;25.20;50.80;;;;;;4972339;28;20231;-74
2021/06/12 04:30:50;;;;;;;5.07;3.40;;;25.10;50.90;;;;;;4989575;28;20232;-74
2021/06/12 04:33:21;;;;;;;5.63;3.57;;;25.10;50.90;;;;;;4987958;28;20205;-73
2021/06/12 04:35:51;;;;;;;4.17;3.70;;;25.10;51.20;;;;;;4990775;28;20212;-73
2021/06/12 04:38:23;;;;;;;6.93;4.20;;;25.10;51.20;;;;;;4987981;28;20274;-72
2021/06/12 04:40:51;;;;;;;4.50;3.20;;;25.10;51.30;;;;;;4989806;28;20231;-74
2021/06/12 04:43:23;;;;;;;2.40;2.20;;;25.10;51.20;;;;;;4991316;28;20200;-74
2021/06/12 04:45:53;;;;;;;4.20;2.20;;;25.10;49.60;;;;;;4987209;28;20201;-74
2021/06/12 04:48:24;;;;;;;4.90;3.23;;;25.10;49.60;;;;;;4990936;28;20208;-74
2021/06/12 04:50:53;;;;;;;6.17;3.93;;;25.00;50.10;;;;;;4990291;28;20228;-74
2021/06/12 04:53:20;;;;;;;5.90;4.27;;;25.00;50.70;;;;;;4973505;28;20648;-74
2021/06/12 04:55:52;;;;;;;6.70;4.67;;;25.00;51.20;;;;;;4987158;28;20205;-74
2021/06/12 04:58:22;;;;;;;6.03;4.43;;;25.00;51.70;;;;;;4979906;28;20192;-74
2021/06/12 05:01:05;;;;;;;8.00;5.23;;;25.00;52.00;;;;;;4987826;28;20300;-74
2021/06/12 05:03:34;;;;;;;9.47;5.30;;;25.00;52.30;;;;;;4978147;28;20863;-73
2021/06/12 05:06:04;;;;;;;7.63;5.40;;;25.00;52.50;;;;;;4990309;28;20197;-72
2021/06/12 05:08:35;;;;;;;8.57;5.80;;;25.00;52.70;;;;;;4992213;28;20222;-72
2021/06/12 05:11:05;;;;;;;10.10;6.00;;;24.90;52.80;;;;;;4973548;28;20231;-73
2021/06/12 05:13:35;;;;;;;9.23;6.10;;;24.90;53.00;;;;;;4972799;28;20905;-72
2021/06/12 05:16:04;;;;;;;10.00;5.73;;;24.90;53.20;;;;;;4973554;28;20247;-72
2021/06/12 05:18:40;;;;;;;8.43;6.00;;;24.90;53.30;;;;;;4989724;28;20217;-72
2021/06/12 05:21:15;;;;;;;8.10;5.67;;;24.90;53.40;;;;;;4989562;28;20283;-72
2021/06/12 05:23:43;;;;;;;7.90;5.50;;;24.90;53.50;;;;;;4987803;28;20204;-72
2021/06/12 05:26:14;;;;;;;9.13;5.70;;;24.90;53.60;;;;;;4972653;28;20271;-72
2021/06/12 05:28:45;;;;;;;10.00;5.83;;;24.90;54.00;;;;;;4989062;28;20630;-72
2021/06/12 05:31:14;;;;;;;6.77;4.83;;;24.90;53.90;;;;;;4989919;28;20303;-71
2021/06/12 05:33:43;;;;;;;7.47;5.40;;;24.90;53.70;;;;;;4970007;28;20213;-71
2021/06/12 05:36:18;;;;;;;12.83;4.87;;;24.90;53.60;;;;;;4979258;28;20808;-69
2021/06/12 05:38:46;;;;;;;9.23;4.70;;;24.90;53.60;;;;;;4987751;28;20197;-68
2021/06/12 05:41:16;;;;;;;8.97;5.03;;;24.90;53.30;;;;;;4993667;28;20242;-68
2021/06/12 05:43:48;;;;;;;8.63;5.90;;;25.00;53.50;;;;;;4993270;28;20196;-70
2021/06/12 05:46:23;;;;;;;8.27;5.73;;;25.00;53.80;;;;;;4989473;28;20212;-71
2021/06/12 05:48:50;;;;;;;10.33;5.57;;;25.00;54.00;;;;;;4996778;28;20204;-71
2021/06/12 05:51:19;;;;;;;8.03;5.40;;;25.00;54.20;;;;;;4988539;28;20650;-68
2021/06/12 05:53:49;;;;;;;30.93;12.57;;;25.10;54.20;;;;;;4999542;28;20191;-65
2021/06/12 05:56:16;;;;;;;27.80;12.33;;;25.10;54.50;;;;;;4994311;28;20214;-66
2021/06/12 05:58:47;;;;;;;20.87;9.30;;;25.10;54.50;;;;;;4999848;28;20203;-67
2021/06/12 06:01:14;;;;;;;13.90;7.43;;;25.10;54.70;;;;;;4984140;28;20209;-69
2021/06/12 06:03:45;;;;;;;11.30;7.30;;;25.20;54.60;;;;;;4990793;28;20302;-69
2021/06/12 06:06:16;;;;;;;13.77;6.90;;;25.20;54.40;;;;;;4985175;28;20215;-71
2021/06/12 06:08:45;;;;;;;11.43;8.67;;;25.20;54.20;;;;;;4991438;28;20212;-68
2021/06/12 06:11:14;;;;;;;13.30;8.03;;;25.30;53.90;;;;;;4997032;28;20224;-68
2021/06/12 06:13:45;;;;;;;10.77;7.80;;;25.10;53.70;;;;;;4990557;28;20193;-68
2021/06/12 06:16:16;;;;;;;9.10;7.80;;;25.10;53.70;;;;;;4981278;28;20231;-68
2021/06/12 06:18:47;;;;;;;8.43;6.83;;;25.00;53.70;;;;;;4987919;28;20211;-68
2021/06/12 06:21:14;;;;;;;9.33;7.27;;;25.00;53.60;;;;;;4987574;28;20231;-70
2021/06/12 06:23:41;;;;;;;8.07;7.27;;;25.10;54.00;;;;;;4989130;28;20211;-70
2021/06/12 06:26:12;;;;;;;8.53;7.73;;;25.10;53.80;;;;;;4974748;28;20314;-67
2021/06/12 06:28:40;;;;;;;8.47;7.63;;;25.20;53.60;;;;;;4991455;28;20204;-70
2021/06/12 06:31:09;;;;;;;8.27;7.47;;;25.20;53.50;;;;;;4992441;28;20231;-70
2021/06/12 06:33:39;;;;;;;9.17;8.33;;;25.20;53.30;;;;;;4984359;28;20519;-70
2021/06/12 06:36:09;;;;;;;8.93;8.03;;;25.20;53.70;;;;;;4990645;28;20644;-68
2021/06/12 06:38:40;;;;;;;11.10;8.40;;;25.20;53.90;;;;;;4989610;28;20633;-70
2021/06/12 06:41:10;;;;;;;10.00;9.00;;;25.20;53.90;;;;;;4990118;28;20203;-70
2021/06/12 06:43:39;;;;;;;8.80;8.00;;;25.20;53.90;;;;;;4993796;28;20622;-71
2021/06/12 06:46:07;;;;;;;9.20;7.90;;;25.20;53.50;;;;;;4987707;28;20212;-68
2021/06/12 06:48:35;;;;;;;11.10;8.90;;;25.30;53.60;;;;;;4986580;28;20211;-67
2021/06/12 06:51:06;;;;;;;9.90;8.90;;;25.30;53.30;;;;;;4987748;28;20662;-67
2021/06/12 06:53:37;;;;;;;9.03;8.13;;;25.40;53.60;;;;;;4988904;28;20600;-69
2021/06/12 06:56:07;;;;;;;9.07;8.10;;;25.40;53.50;;;;;;4989913;28;20551;-70
2021/06/12 06:58:37;;;;;;;10.07;9.17;;;25.40;53.40;;;;;;4973717;28;20837;-69
2021/06/12 07:01:08;;;;;;;10.07;9.07;;;25.40;53.30;;;;;;4969557;28;20275;-67
2021/06/12 07:03:38;;;;;;;11.00;9.73;;;25.40;53.30;;;;;;4989982;28;20204;-67
2021/06/12 07:06:16;;;;;;;11.23;8.83;;;25.40;53.30;;;;;;4986694;28;20192;-67
2021/06/12 07:08:48;;;;;;;9.27;8.47;;;25.40;53.30;;;;;;4988739;28;20721;-67
2021/06/12 07:11:17;;;;;;;11.37;8.77;;;25.40;53.30;;;;;;4977872;28;20580;-69
2021/06/12 07:13:51;;;;;;;9.33;8.43;;;25.40;53.30;;;;;;4990501;28;20739;-70
2021/06/12 07:16:21;;;;;;;10.70;9.37;;;25.40;53.30;;;;;;4989535;28;20224;-70
2021/06/12 07:18:57;;;;;;;10.10;9.10;;;25.40;53.30;;;;;;4989084;28;20200;-70
2021/06/12 07:21:28;;;;;;;9.23;8.33;;;25.50;53.40;;;;;;4990132;28;20216;-68
2021/06/12 07:23:59;;;;;;;10.17;9.20;;;25.40;53.30;;;;;;4987720;28;20211;-69
2021/06/12 07:26:35;;;;;;;9.97;8.97;;;25.40;53.60;;;;;;4988960;28;20203;-68
2021/06/12 07:29:04;;;;;;;9.30;8.40;;;25.40;53.30;;;;;;4990001;28;20208;-68
2021/06/12 07:31:39;;;;;;;10.90;9.63;;;25.40;53.20;;;;;;4989390;28;20882;-68
2021/06/12 07:34:10;;;;;;;9.97;8.97;;;25.40;53.30;;;;;;4987005;28;20298;-69
2021/06/12 07:36:40;;;;;;;9.77;8.87;;;25.50;53.30;;;;;;4992147;28;20196;-66
2021/06/12 07:39:15;;;;;;;9.87;8.93;;;25.40;53.20;;;;;;4973840;28;20203;-67
2021/06/12 07:41:46;;;;;;;10.70;9.63;;;25.50;53.30;;;;;;4984862;28;20241;-69
2021/06/12 07:44:21;;;;;;;10.53;9.50;;;25.50;53.40;;;;;;4987742;28;20654;-71
2021/06/12 07:46:51;;;;;;;10.30;9.37;;;25.50;53.70;;;;;;4988129;28;20224;-70
2021/06/12 07:49:22;;;;;;;11.73;9.83;;;25.50;53.30;;;;;;4972620;28;20208;-69
2021/06/12 07:51:51;;;;;;;9.37;8.57;;;25.50;53.40;;;;;;4985536;28;20200;-71
2021/06/12 07:54:20;;;;;;;9.97;8.97;;;25.50;53.40;;;;;;4989619;28;20287;-69
2021/06/12 07:56:51;;;;;;;10.80;9.80;;;25.50;53.70;;;;;;4976420;28;20204;-72
2021/06/12 07:59:19;;;;;;;9.57;8.67;;;25.60;53.60;;;;;;4988668;28;20339;-70
2021/06/12 08:01:48;;;;;;;10.77;9.77;;;25.60;53.50;;;;;;4997854;28;20872;-70
2021/06/12 08:04:20;;;;;;;11.67;10.47;;;25.60;53.50;;;;;;4986917;28;20681;-72
2021/06/12 08:06:48;;;;;;;10.43;9.33;;;25.60;53.40;;;;;;4994728;28;20246;-68
2021/06/12 08:09:17;;;;;;;10.07;9.07;;;25.70;53.60;;;;;;4978800;28;20205;-70
2021/06/12 08:11:53;;;;;;;9.90;8.93;;;25.70;53.40;;;;;;4990181;28;20220;-68
2021/06/12 08:14:25;;;;;;;11.90;9.27;;;25.70;53.30;;;;;;4974918;28;20282;-68
2021/06/12 08:16:54;;;;;;;10.90;9.97;;;25.70;53.40;;;;;;4996373;28;20227;-70
2021/06/12 08:19:25;;;;;;;13.37;10.23;;;25.60;53.30;;;;;;4989150;28;20552;-70
2021/06/12 08:21:53;;;;;;;12.57;9.97;;;25.70;53.30;;;;;;4994438;28;20232;-69
2021/06/12 08:24:22;;;;;;;9.30;8.50;;;25.60;53.20;;;;;;4989728;28;20704;-71
2021/06/12 08:26:54;;;;;;;11.90;10.57;;;25.70;53.30;;;;;;4989721;28;20213;-71
2021/06/12 08:29:22;;;;;;;11.10;9.20;;;25.70;53.30;;;;;;4987447;28;20339;-71
2021/06/12 08:31:51;;;;;;;11.13;8.07;;;25.70;53.40;;;;;;4988140;28;20234;-70
2021/06/12 08:34:25;;;;;;;9.50;8.50;;;25.70;53.70;;;;;;4978309;28;20208;-69
2021/06/12 08:36:54;;;;;;;9.20;8.33;;;25.70;53.30;;;;;;4989481;28;20235;-66
2021/06/12 08:39:24;;;;;;;10.20;9.20;;;25.70;53.30;;;;;;4991813;28;20511;-65
2021/06/12 08:41:56;;;;;;;9.27;8.30;;;25.70;53.10;;;;;;4992192;28;20204;-70
2021/06/12 08:44:29;;;;;;;10.97;9.00;;;25.80;53.30;;;;;;4992180;28;20208;-70
2021/06/12 08:47:02;;;;;;;8.83;8.10;;;25.80;53.30;;;;;;4986784;28;20741;-67
2021/06/12 08:49:32;;;;;;;9.70;8.10;;;25.80;53.00;;;;;;4989185;28;20216;-68
2021/06/12 08:52:01;;;;;;;8.97;7.87;;;25.80;53.00;;;;;;4970865;28;20663;-70
2021/06/12 08:54:32;;;;;;;9.67;8.77;;;25.80;52.90;;;;;;4989852;28;20210;-69
2021/06/12 08:57:04;;;;;;;9.90;8.90;;;25.80;52.60;;;;;;4987899;28;20215;-69
2021/06/12 08:59:35;;;;;;;10.07;9.10;;;25.80;52.60;;;;;;4979325;28;20630;-68
2021/06/12 09:02:06;;;;;;;8.50;7.70;;;25.80;52.70;;;;;;4974498;28;20288;-71
2021/06/12 09:04:48;;;;;;;12.40;9.20;;;25.80;53.20;;;;;;4982702;28;20215;-70
2021/06/12 09:07:25;;;;;;;8.57;7.77;;;25.80;53.50;;;;;;4969400;28;20216;-70
2021/06/12 09:09:58;;;;;;;11.00;8.70;;;25.80;53.20;;;;;;4986439;28;20787;-69
2021/06/12 09:12:47;;;;;;;9.43;7.33;;;25.80;53.20;;;;;;4981632;28;20216;-68
2021/06/12 09:15:18;;;;;;;8.87;7.57;;;25.80;52.80;;;;;;4986753;28;20208;-71
2021/06/12 09:17:53;;;;;;;9.43;8.00;;;25.90;52.90;;;;;;4984649;28;20327;-71
2021/06/12 09:20:32;;;;;;;8.30;7.43;;;25.80;52.80;;;;;;4988926;28;20211;-70
2021/06/12 09:23:19;;;;;;;10.07;7.67;;;25.80;52.90;;;;;;4995042;28;20237;-71
2021/06/12 09:25:53;;;;;;;9.73;7.73;;;25.90;53.00;;;;;;4985845;28;20278;-70
2021/06/12 09:28:24;;;;;;;7.83;7.07;;;25.90;52.90;;;;;;4988312;28;20747;-71
2021/06/12 09:31:14;;;;;;;7.63;6.80;;;25.90;52.90;;;;;;4984097;28;20232;-72
2021/06/12 09:33:48;;;;;;;7.77;7.00;;;25.90;52.90;;;;;;4988005;28;20578;-71
2021/06/12 09:36:19;;;;;;;8.33;7.47;;;25.90;52.50;;;;;;4972935;28;20220;-71
2021/06/12 09:38:46;;;;;;;7.10;6.47;;;25.90;52.30;;;;;;4986108;28;20213;-74
2021/06/12 09:41:29;;;;;;;7.97;5.93;;;25.90;52.30;;;;;;4986368;28;20219;-68
2021/06/12 09:43:59;;;;;;;9.17;6.30;;;25.90;52.30;;;;;;4993468;28;20257;-70
2021/06/12 09:46:41;;;;;;;6.53;5.93;;;25.90;52.00;;;;;;4971405;28;20200;-69
2021/06/12 09:49:14;;;;;;;7.63;6.67;;;25.90;52.00;;;;;;4963031;28;20603;-68
2021/06/12 09:52:16;;;;;;;6.80;6.10;;;25.90;52.10;;;;;;4984234;28;20228;-70
2021/06/12 09:54:50;;;;;;;9.33;5.03;;;25.90;51.30;;;;;;4976487;28;20298;-69
2021/06/12 09:57:24;;;;;;;7.00;5.83;;;25.90;51.40;;;;;;4974943;28;20211;-73
2021/06/12 09:59:55;;;;;;;10.70;5.43;;;25.90;51.20;;;;;;4970569;28;20220;-72
2021/06/12 10:02:36;;;;;;;5.93;4.60;;;25.80;50.40;;;;;;4966361;28;20213;-72
2021/06/12 10:05:12;;;;;;;6.20;4.67;;;25.80;50.50;;;;;;4982308;28;20207;-69
2021/06/12 10:07:45;;;;;;;6.43;4.87;;;25.80;49.70;;;;;;4982177;28;20278;-70
2021/06/12 10:10:16;;;;;;;5.20;3.80;;;25.80;49.50;;;;;;4987937;28;20205;-71
2021/06/12 10:12:46;;;;;;;5.73;4.33;;;25.80;49.60;;;;;;4935213;28;20638;-69
2021/06/12 10:15:22;;;;;;;6.97;4.30;;;25.80;49.30;;;;;;4989962;28;20220;-68
2021/06/12 10:18:02;;;;;;;5.97;3.93;;;25.80;48.90;;;;;;4990430;28;20204;-69
2021/06/12 10:20:30;;;;;;;5.57;3.80;;;25.80;48.20;;;;;;4972624;28;20211;-69
2021/06/12 10:23:03;;;;;;;6.07;3.67;;;25.70;48.30;;;;;;4988727;28;20693;-69
2021/06/12 10:25:32;;;;;;;5.93;3.87;;;25.70;48.60;;;;;;4966746;28;20634;-69
2021/06/12 10:28:01;;;;;;;7.37;3.80;;;25.60;47.60;;;;;;4992120;28;20204;-69
2021/06/12 10:30:34;;;;;;;6.23;3.87;;;25.50;48.10;;;;;;4988891;28;20740;-68
2021/06/12 10:33:07;;;;;;;7.13;3.93;;;25.60;47.80;;;;;;4987286;28;20216;-68
2021/06/12 10:35:36;;;;;;;4.83;3.60;;;25.60;47.50;;;;;;4985374;28;20197;-68
2021/06/12 10:38:30;;;;;;;7.27;4.03;;;25.70;47.20;;;;;;4983370;28;20339;-69
2021/06/12 10:41:22;;;;;;;5.00;3.63;;;25.60;46.70;;;;;;4987394;28;20220;-68
2021/06/12 10:43:59;;;;;;;4.87;3.87;;;25.60;46.60;;;;;;4985519;28;20218;-68
2021/06/12 10:46:44;;;;;;;7.93;3.47;;;25.60;46.40;;;;;;4973444;28;20216;-68
2021/06/12 10:49:36;;;;;;;5.30;3.30;;;25.60;46.20;;;;;;4982444;28;20223;-68
2021/06/12 10:52:10;;;;;;;11.07;3.30;;;25.50;46.10;;;;;;4986003;28;20315;-70
2021/06/12 10:54:41;;;;;;;32.67;7.47;;;25.60;46.60;;;;;;4985998;28;20638;-73
2021/06/12 10:57:17;;;;;;;8.97;5.33;;;25.60;48.00;;;;;;4988997;28;20215;-71
2021/06/12 10:59:51;;;;;;;8.17;4.30;;;25.70;46.30;;;;;;4986453;28;20566;-71
2021/06/12 11:02:39;;;;;;;9.70;4.40;;;25.70;47.10;;;;;;4986356;28;20204;-72
2021/06/12 11:05:31;;;;;;;10.37;4.30;;;25.70;46.90;;;;;;4990633;28;20223;-71
2021/06/12 11:08:15;;;;;;;5.33;3.97;;;25.70;45.90;;;;;;4986005;28;20209;-70
2021/06/12 11:10:46;;;;;;;6.67;3.60;;;25.70;45.70;;;;;;4986789;28;20238;-72
2021/06/12 11:13:28;;;;;;;7.00;3.33;;;25.70;45.70;;;;;;4985161;28;20208;-69
2021/06/12 11:16:20;;;;;;;6.37;3.90;;;25.80;46.10;;;;;;4985791;28;20254;-69
2021/06/12 11:19:18;;;;;;;5.70;3.33;;;25.80;45.90;;;;;;4983918;28;20378;-71
2021/06/12 11:22:32;;;;;;;7.33;3.70;;;25.80;45.80;;;;;;4983434;28;20235;-71
2021/06/12 11:25:15;;;;;;;5.20;3.50;;;25.90;45.60;;;;;;4969754;28;20220;-71
2021/06/12 11:27:55;;;;;;;6.37;3.37;;;25.90;45.80;;;;;;4976343;28;20256;-71
2021/06/12 11:30:24;;;;;;;7.20;3.43;;;25.90;45.00;;;;;;4987913;28;20200;-70
2021/06/12 11:33:01;;;;;;;5.27;3.43;;;25.90;44.70;;;;;;4985481;28;20555;-71
2021/06/12 11:35:52;;;;;;;4.83;3.30;;;25.90;43.90;;;;;;4983474;28;20208;-70
2021/06/12 11:38:35;;;;;;;5.27;3.30;;;25.90;44.30;;;;;;4983428;28;20192;-69
2021/06/12 11:41:12;;;;;;;6.77;3.30;;;25.90;44.40;;;;;;4977529;28;20643;-69
2021/06/12 11:43:50;;;;;;;5.80;3.50;;;25.90;44.30;;;;;;4979568;28;20292;-69
2021/06/12 11:46:33;;;;;;;5.30;3.77;;;26.00;44.20;;;;;;4986220;28;20741;-70
2021/06/12 11:49:08;;;;;;;7.37;3.33;;;26.00;43.90;;;;;;4982682;28;20200;-69
2021/06/12 11:51:43;;;;;;;9.87;3.17;;;26.00;44.30;;;;;;4974480;28;21739;-70
2021/06/12 11:54:26;;;;;;;7.93;3.40;;;25.90;43.60;;;;;;4968805;28;20196;-70
2021/06/12 11:57:04;;;;;;;6.50;2.87;;;25.90;43.90;;;;;;4988853;28;20223;-68
2021/06/12 11:59:40;;;;;;;5.40;3.10;;;25.90;44.10;;;;;;4992227;28;20199;-68
2021/06/12 12:02:11;;;;;;;5.37;3.47;;;25.80;43.60;;;;;;4988095;28;20212;-67
2021/06/12 12:04:42;;;;;;;8.17;3.63;;;25.80;43.40;;;;;;4990021;28;20218;-67
2021/06/12 12:07:16;;;;;;;9.93;3.70;;;25.70;42.80;;;;;;4986689;28;20211;-67
2021/06/12 12:09:53;;;;;;;6.40;3.90;;;25.60;42.60;;;;;;4987886;28;20195;-68
2021/06/12 12:12:23;;;;;;;5.27;3.07;;;25.60;43.00;;;;;;4986785;28;20215;-67
2021/06/12 12:14:55;;;;;;;8.47;3.33;;;25.50;43.50;;;;;;4997680;28;20727;-68
2021/06/12 12:17:27;;;;;;;4.73;3.20;;;25.50;43.10;;;;;;4961685;28;20646;-66
2021/06/12 12:20:10;;;;;;;7.63;3.67;;;25.50;43.30;;;;;;4982145;28;20206;-68
2021/06/12 12:22:48;;;;;;;6.10;3.23;;;25.40;43.20;;;;;;4985428;28;20242;-66
2021/06/12 12:25:23;;;;;;;7.57;3.73;;;25.30;43.60;;;;;;4987345;28;20722;-66
2021/06/12 12:28:08;;;;;;;4.87;3.17;;;25.30;43.40;;;;;;4988164;28;20874;-66
2021/06/12 12:30:42;;;;;;;8.07;3.60;;;25.30;43.10;;;;;;4976062;28;20192;-67
2021/06/12 12:33:18;;;;;;;8.50;3.20;;;25.20;43.40;;;;;;4996327;28;20696;-67
2021/06/12 12:35:48;;;;;;;5.70;3.00;;;25.20;43.60;;;;;;4983767;28;20196;-68
2021/06/12 12:38:21;;;;;;;5.90;3.10;;;25.20;43.60;;;;;;4988176;28;20191;-68
2021/06/12 12:40:52;;;;;;;4.73;2.90;;;25.20;43.30;;;;;;4988181;28;20212;-68
2021/06/12 12:43:20;;;;;;;10.43;3.20;;;25.20;43.30;;;;;;4985737;28;20266;-68
2021/06/12 12:46:06;;;;;;;6.90;3.47;;;25.20;43.10;;;;;;4988121;28;20227;-70
2021/06/12 12:48:41;;;;;;;5.80;2.90;;;25.20;43.00;;;;;;4979565;28;20817;-69
2021/06/12 12:51:27;;;;;;;6.80;3.20;;;25.20;42.70;;;;;;4986287;28;20822;-68
2021/06/12 12:54:12;;;;;;;5.90;3.13;;;25.20;43.00;;;;;;4997799;28;20357;-68
2021/06/12 12:57:05;;;;;;;7.77;2.90;;;25.10;42.80;;;;;;4941539;28;20212;-68
2021/06/12 12:59:56;;;;;;;6.40;3.20;;;25.10;43.00;;;;;;4996301;28;20353;-68
2021/06/12 13:02:42;;;;;;;5.93;2.70;;;25.10;42.10;;;;;;4995127;28;20525;-70
2021/06/12 13:05:17;;;;;;;8.37;2.80;;;25.00;42.10;;;;;;4988157;28;20223;-70
2021/06/12 13:08:10;;;;;;;6.87;2.97;;;25.00;42.80;;;;;;4987147;28;20207;-70
2021/06/12 13:10:47;;;;;;;5.87;2.60;;;25.00;42.10;;;;;;4987731;28;20605;-69
2021/06/12 13:13:25;;;;;;;3.83;2.70;;;25.00;42.40;;;;;;4985410;28;20680;-69
2021/06/12 13:15:59;;;;;;;3.90;2.70;;;25.10;42.40;;;;;;4984680;28;20196;-70
2021/06/12 13:18:38;;;;;;;4.53;2.70;;;25.10;42.10;;;;;;4979789;28;20204;-68
2021/06/12 13:21:16;;;;;;;5.57;2.77;;;25.10;41.50;;;;;;4987255;28;20791;-68
2021/06/12 13:23:59;;;;;;;4.80;2.30;;;25.10;42.00;;;;;;4970580;28;20258;-68